createdAt,value
2014-06-06T00:00:23.720Z,61.97
2014-06-06T00:01:28.407Z,62.1
2014-06-06T00:02:33.110Z,62.32
2014-06-06T00:03:37.814Z,62.53
2014-06-06T00:04:42.492Z,61.96
2014-06-06T00:05:47.187Z,62.71
2014-06-06T00:06:52.474Z,62.99
2014-06-06T00:07:57.152Z,63.4
2014-06-06T00:09:02.139Z,63.55
2014-06-06T00:10:06.831Z,63.6
2014-06-06T00:11:11.505Z,62.39
2014-06-06T00:12:16.196Z,61.5
2014-06-06T00:13:20.886Z,61.91
2014-06-06T00:14:25.858Z,62.44
2014-06-06T00:15:30.548Z,62.49
2014-06-06T00:16:35.536Z,62.1
2014-06-06T00:17:40.229Z,62.12
2014-06-06T00:18:44.902Z,63.35
2014-06-06T00:19:49.890Z,63.17
2014-06-06T00:20:54.578Z,61.89
2014-06-06T00:21:59.268Z,62.89
2014-06-06T00:23:03.255Z,61.94
2014-06-06T00:24:07.944Z,63.02
2014-06-06T00:25:12.634Z,62.11
2014-06-06T00:26:17.605Z,61.49
2014-06-06T00:27:22.293Z,61.94
2014-06-06T00:28:26.968Z,61.85
2014-06-06T00:29:31.657Z,61.21
2014-06-06T00:30:36.643Z,60.95
2014-06-06T00:31:41.335Z,60.65
2014-06-06T00:32:46.009Z,60.75
2014-06-06T00:33:50.698Z,62.27
2014-06-06T00:34:55.684Z,62.84
2014-06-06T00:36:00.358Z,62.57
2014-06-06T00:37:05.345Z,62.29
2014-06-06T00:38:10.033Z,62.03
2014-06-06T00:39:14.724Z,61.57
2014-06-06T00:40:19.398Z,63.15
2014-06-06T00:41:24.681Z,63.24
2014-06-06T00:42:29.370Z,62.32
2014-06-06T00:43:34.340Z,61.59
2014-06-06T00:44:39.623Z,61.17
2014-06-06T00:45:44.299Z,62.25
2014-06-06T00:46:48.989Z,62.24
2014-06-06T00:47:53.959Z,61.53
2014-06-06T00:48:58.649Z,61.84
2014-06-06T00:50:03.338Z,60.85
2014-06-06T00:51:08.012Z,60.76
2014-06-06T00:52:12.702Z,60.59
2014-06-06T00:53:17.390Z,60.43
2014-06-06T00:54:22.081Z,60.8
2014-06-06T00:55:26.755Z,60.99
2014-06-06T00:56:31.443Z,60.86
2014-06-06T00:57:36.117Z,60.58
2014-06-06T00:58:40.807Z,60.49
2014-06-06T00:59:45.483Z,60.08
2014-06-06T01:00:50.172Z,60.16
2014-06-06T01:01:54.846Z,60.13
2014-06-06T01:02:59.832Z,61.22
2014-06-06T01:04:04.506Z,61.99
2014-06-06T01:05:09.196Z,61.37
2014-06-06T01:06:13.869Z,62.03
2014-06-06T01:07:18.559Z,61.84
2014-06-06T01:08:23.232Z,61.2
2014-06-06T01:09:28.516Z,61.23
2014-06-06T01:10:33.206Z,62.05
2014-06-06T01:11:37.878Z,62.07
2014-06-06T01:12:42.865Z,61.88
2014-06-06T01:13:47.556Z,63.36
2014-06-06T01:14:52.527Z,63.71
2014-06-06T01:15:57.217Z,63.25
2014-06-06T01:17:02.187Z,63.46
2014-06-06T01:18:06.877Z,63.15
2014-06-06T01:19:11.566Z,62.81
2014-06-06T01:20:16.239Z,62.23
2014-06-06T01:21:20.929Z,61.34
2014-06-06T01:22:25.603Z,61.45
2014-06-06T01:23:30.292Z,61.73
2014-06-06T01:24:34.967Z,62.09
2014-06-06T01:25:39.656Z,61.62
2014-06-06T01:26:44.329Z,61.24
2014-06-06T01:27:49.021Z,60.9
2014-06-06T01:28:53.710Z,62.37
2014-06-06T01:29:58.681Z,64.56
2014-06-06T01:31:03.370Z,64.5
2014-06-06T01:32:08.043Z,64.16
2014-06-06T01:33:13.031Z,63.79
2014-06-06T01:34:17.705Z,64.19
2014-06-06T01:35:22.394Z,64.1
2014-06-06T01:36:27.381Z,63.48
2014-06-06T01:37:32.350Z,64.09
2014-06-06T01:38:37.337Z,63.64
2014-06-06T01:39:42.011Z,64.06
2014-06-06T01:40:46.999Z,63.62
2014-06-06T01:41:51.673Z,63.74
2014-06-06T01:42:56.362Z,64.11
2014-06-06T01:44:01.333Z,63.72
2014-06-06T01:45:05.334Z,63.98
2014-06-06T01:46:10.320Z,63.95
2014-06-06T01:47:14.994Z,63.37
2014-06-06T01:48:19.685Z,64.29
2014-06-06T01:49:24.374Z,64.4
2014-06-06T01:50:29.047Z,64.43
2014-06-06T01:51:33.737Z,64.31
2014-06-06T01:52:38.411Z,63.86
2014-06-06T01:53:43.397Z,63.97
2014-06-06T01:54:48.073Z,64
2014-06-06T01:55:53.059Z,63.71
2014-06-06T01:56:57.733Z,63.23
2014-06-06T01:58:01.735Z,62.93
2014-06-06T01:59:06.409Z,62.89
2014-06-06T02:00:11.098Z,62.91
2014-06-06T02:01:15.771Z,62.86
2014-06-06T02:02:20.758Z,62.88
2014-06-06T02:03:25.433Z,62.88
2014-06-06T02:04:30.418Z,62.91
2014-06-06T02:05:35.092Z,63.12
2014-06-06T02:06:39.781Z,63.21
2014-06-06T02:07:44.455Z,62.84
2014-06-06T02:08:49.147Z,63.09
2014-06-06T02:09:53.821Z,63.15
2014-06-06T02:10:58.509Z,63.32
2014-06-06T02:12:03.495Z,63.05
2014-06-06T02:13:08.170Z,63.38
2014-06-06T02:14:13.156Z,63.4
2014-06-06T02:15:17.830Z,63.39
2014-06-06T02:16:22.817Z,63.79
2014-06-06T02:17:27.491Z,63.71
2014-06-06T02:18:32.773Z,63.15
2014-06-06T02:19:37.447Z,63.21
2014-06-06T02:20:42.136Z,63.65
2014-06-06T02:21:46.810Z,63.1
2014-06-06T02:22:51.798Z,63.03
2014-06-06T02:23:56.473Z,63.83
2014-06-06T02:25:01.161Z,63.88
2014-06-06T02:26:05.835Z,64.06
2014-06-06T02:27:10.525Z,64.25
2014-06-06T02:28:15.215Z,64.82
2014-06-06T02:29:20.201Z,64.93
2014-06-06T02:30:24.874Z,65.26
2014-06-06T02:31:29.862Z,64.77
2014-06-06T02:32:34.534Z,63.78
2014-06-06T02:33:39.224Z,63.55
2014-06-06T02:34:43.898Z,63.43
2014-06-06T02:35:48.587Z,63.88
2014-06-06T02:36:53.263Z,64.27
2014-06-06T02:37:57.952Z,63.73
2014-06-06T02:39:02.627Z,63.44
2014-06-06T02:40:07.910Z,63.47
2014-06-06T02:41:12.598Z,63.68
2014-06-06T02:42:17.272Z,63.68
2014-06-06T02:43:21.962Z,64.19
2014-06-06T02:44:26.636Z,64.33
2014-06-06T02:45:31.622Z,63.75
2014-06-06T02:46:36.296Z,63.64
2014-06-06T02:47:40.985Z,63.68
2014-06-06T02:48:45.659Z,63.02
2014-06-06T02:49:50.349Z,62.93
2014-06-06T02:50:55.336Z,62.79
2014-06-06T02:52:00.011Z,63.14
2014-06-06T02:53:04.699Z,63.61
2014-06-06T02:54:09.373Z,64.11
2014-06-06T02:55:14.048Z,63.2
2014-06-06T02:56:18.738Z,63.02
2014-06-06T02:57:23.412Z,63.05
2014-06-06T02:58:28.397Z,62.98
2014-06-06T02:59:33.086Z,62.6
2014-06-06T03:00:37.760Z,63.46
2014-06-06T03:01:42.450Z,64.31
2014-06-06T03:02:47.124Z,63.37
2014-06-06T03:03:51.812Z,64.23
2014-06-06T03:04:56.489Z,64.61
2014-06-06T03:06:01.474Z,65.02
2014-06-06T03:07:06.148Z,65.52
2014-06-06T03:08:10.839Z,64.92
2014-06-06T03:09:15.810Z,64.69
2014-06-06T03:10:20.796Z,64.38
2014-06-06T03:11:25.469Z,64.43
2014-06-06T03:12:29.471Z,65.01
2014-06-06T03:13:34.457Z,65.39
2014-06-06T03:14:39.428Z,65.71
2014-06-06T03:15:44.117Z,65.8
2014-06-06T03:16:49.385Z,65.67
2014-06-06T03:17:54.074Z,65.75
2014-06-06T03:18:58.748Z,65.65
2014-06-06T03:20:03.438Z,65.96
2014-06-06T03:21:08.409Z,65.84
2014-06-06T03:22:13.099Z,66.71
2014-06-06T03:23:17.789Z,65.99
2014-06-06T03:24:22.463Z,65.09
2014-06-06T03:25:27.450Z,65.87
2014-06-06T03:26:32.124Z,65.07
2014-06-06T03:27:37.110Z,64.2
2014-06-06T03:28:41.783Z,63.65
2014-06-06T03:29:46.473Z,63.31
2014-06-06T03:30:51.146Z,63.09
2014-06-06T03:31:55.836Z,63.82
2014-06-06T03:33:00.525Z,65
2014-06-06T03:34:05.199Z,65.72
2014-06-06T03:35:09.889Z,64.46
2014-06-06T03:36:14.565Z,63.69
2014-06-06T03:37:19.253Z,63.56
2014-06-06T03:38:24.522Z,64.84
2014-06-06T03:39:29.210Z,65.44
2014-06-06T03:40:33.884Z,65.55
2014-06-06T03:41:38.574Z,65.33
2014-06-06T03:42:42.576Z,65.48
2014-06-06T03:43:47.250Z,65.87
2014-06-06T03:44:51.970Z,65.98
2014-06-06T03:45:56.644Z,66.33
2014-06-06T03:47:01.334Z,66.32
2014-06-06T03:48:06.008Z,66.28
2014-06-06T03:49:10.994Z,66.33
2014-06-06T03:50:15.980Z,65.43
2014-06-06T03:51:20.670Z,64.86
2014-06-06T03:52:25.344Z,65.05
2014-06-06T03:53:30.035Z,65.06
2014-06-06T03:54:34.709Z,65.45
2014-06-06T03:55:39.398Z,65.45
2014-06-06T03:56:44.369Z,65.4
2014-06-06T03:57:49.058Z,65.92
2014-06-06T03:58:53.733Z,65.74
2014-06-06T03:59:58.421Z,65.91
2014-06-06T04:01:03.095Z,66.35
2014-06-06T04:02:07.785Z,66.12
2014-06-06T04:03:12.475Z,66.55
2014-06-06T04:04:17.164Z,65.84
2014-06-06T04:05:22.134Z,65.06
2014-06-06T04:06:27.121Z,65.32
2014-06-06T04:07:32.093Z,65.29
2014-06-06T04:08:37.080Z,64.95
2014-06-06T04:09:41.754Z,64.32
2014-06-06T04:10:46.443Z,64.19
2014-06-06T04:11:51.414Z,64.73
2014-06-06T04:12:56.103Z,64.7
2014-06-06T04:14:00.777Z,64.03
2014-06-06T04:15:05.763Z,64.77
2014-06-06T04:16:10.452Z,64.97
2014-06-06T04:17:15.720Z,64.63
2014-06-06T04:18:20.409Z,65.5
2014-06-06T04:19:25.084Z,65.52
2014-06-06T04:20:29.758Z,65.17
2014-06-06T04:21:34.447Z,64.73
2014-06-06T04:22:39.137Z,64.78
2014-06-06T04:23:43.810Z,65.37
2014-06-06T04:24:48.796Z,65.58
2014-06-06T04:25:53.472Z,66.05
2014-06-06T04:26:58.162Z,66.25
2014-06-06T04:28:03.132Z,66.19
2014-06-06T04:29:08.119Z,66.46
2014-06-06T04:30:12.793Z,66.86
2014-06-06T04:31:17.779Z,66.76
2014-06-06T04:32:22.452Z,65.03
2014-06-06T04:33:27.141Z,64.92
2014-06-06T04:34:31.815Z,64.4
2014-06-06T04:35:36.802Z,64.07
2014-06-06T04:36:41.476Z,63.91
2014-06-06T04:37:46.462Z,64.07
2014-06-06T04:38:51.137Z,64.35
2014-06-06T04:39:55.827Z,64.27
2014-06-06T04:41:00.813Z,63.3
2014-06-06T04:42:05.488Z,62.59
2014-06-06T04:43:10.474Z,63.15
2014-06-06T04:44:15.148Z,62.83
2014-06-06T04:45:19.837Z,62.69
2014-06-06T04:46:24.527Z,62.57
2014-06-06T04:47:29.498Z,62.5
2014-06-06T04:48:34.186Z,62.07
2014-06-06T04:49:38.861Z,61.99
2014-06-06T04:50:43.550Z,61.79
2014-06-06T04:51:48.223Z,61.45
2014-06-06T04:52:52.898Z,61.57
2014-06-06T04:53:57.588Z,61.19
2014-06-06T04:55:02.276Z,60.63
2014-06-06T04:56:06.968Z,60.51
2014-06-06T04:57:11.642Z,61.44
2014-06-06T04:58:16.331Z,60.4
2014-06-06T04:59:21.005Z,60.03
2014-06-06T05:00:26.007Z,60.36
2014-06-06T05:01:30.696Z,59.78
2014-06-06T05:02:35.370Z,59.13
2014-06-06T05:03:40.059Z,58.74
2014-06-06T05:04:45.045Z,57.79
2014-06-06T05:05:49.719Z,57.63
2014-06-06T05:06:54.705Z,57.47
2014-06-06T05:07:59.395Z,57.9
2014-06-06T05:09:04.069Z,58.86
2014-06-06T05:10:08.760Z,59.16
2014-06-06T05:11:13.434Z,58.79
2014-06-06T05:12:18.123Z,58.09
2014-06-06T05:13:22.813Z,57.76
2014-06-06T05:14:27.503Z,57.61
2014-06-06T05:15:32.177Z,57.92
2014-06-06T05:16:37.163Z,57.58
2014-06-06T05:17:41.852Z,57.06
2014-06-06T05:18:46.525Z,58
2014-06-06T05:19:51.200Z,56.92
2014-06-06T05:20:55.889Z,56.39
2014-06-06T05:22:00.563Z,56.7
2014-06-06T05:23:05.549Z,57
2014-06-06T05:24:10.238Z,56.51
2014-06-06T05:25:14.930Z,57.59
2014-06-06T05:26:19.604Z,56.87
2014-06-06T05:27:24.292Z,57.46
2014-06-06T05:28:28.982Z,56.51
2014-06-06T05:29:33.954Z,56.26
2014-06-06T05:30:38.642Z,57.12
2014-06-06T05:31:43.628Z,57.19
2014-06-06T05:32:48.615Z,57.02
2014-06-06T05:33:53.289Z,57.05
2014-06-06T05:34:57.979Z,56.44
2014-06-06T05:36:02.668Z,56.24
2014-06-06T05:37:07.342Z,56.42
2014-06-06T05:38:12.328Z,57.36
2014-06-06T05:39:17.019Z,58.13
2014-06-06T05:40:21.693Z,58.22
2014-06-06T05:41:26.383Z,56.24
2014-06-06T05:42:31.072Z,55.33
2014-06-06T05:43:35.745Z,54.73
2014-06-06T05:44:41.028Z,55.47
2014-06-06T05:45:46.016Z,56.15
2014-06-06T05:46:50.705Z,56.24
2014-06-06T05:47:55.379Z,55.63
2014-06-06T05:49:00.068Z,56.15
2014-06-06T05:50:04.742Z,56.05
2014-06-06T05:51:09.431Z,54.83
2014-06-06T05:52:14.404Z,55.16
2014-06-06T05:53:18.703Z,54.63
2014-06-06T05:54:23.688Z,54.46
2014-06-06T05:55:28.362Z,54.91
2014-06-06T05:56:33.051Z,53.75
2014-06-06T05:57:37.742Z,53.56
2014-06-06T05:58:42.431Z,52.65
2014-06-06T05:59:47.104Z,52.1
2014-06-06T06:00:52.091Z,53.4
2014-06-06T06:01:57.061Z,53.1
2014-06-06T06:03:01.751Z,53.26
2014-06-06T06:04:06.440Z,51.82
2014-06-06T06:05:11.129Z,48.37
2014-06-06T06:06:15.805Z,41.43
2014-06-06T06:07:20.494Z,37.5
2014-06-06T06:08:25.185Z,35.22
2014-06-06T06:09:29.874Z,33.52
2014-06-06T06:10:34.563Z,32.92
2014-06-06T06:11:39.252Z,31.59
2014-06-06T06:12:43.926Z,29.91
2014-06-06T06:13:48.617Z,29.93
2014-06-06T06:14:53.306Z,30.06
2014-06-06T06:15:57.995Z,30.64
2014-06-06T06:17:01.997Z,29.17
2014-06-06T06:18:06.686Z,29.2
2014-06-06T06:19:11.376Z,28.98
2014-06-06T06:20:16.065Z,27.33
2014-06-06T06:21:20.756Z,26.48
2014-06-06T06:22:25.445Z,26.48
2014-06-06T06:23:30.136Z,26.07
2014-06-06T06:24:34.825Z,25.43
2014-06-06T06:25:39.529Z,25.59
2014-06-06T06:26:44.219Z,25.75
2014-06-06T06:27:48.908Z,24.76
2014-06-06T06:28:53.895Z,25.8
2014-06-06T06:29:58.897Z,24.99
2014-06-06T06:31:03.586Z,24.7
2014-06-06T06:32:08.276Z,24.19
2014-06-06T06:33:12.980Z,23.89
2014-06-06T06:34:16.983Z,25.67
2014-06-06T06:35:21.674Z,28.83
2014-06-06T06:36:26.378Z,32.16
2014-06-06T06:37:31.365Z,34.48
2014-06-06T06:38:36.055Z,35.56
2014-06-06T06:39:40.745Z,36.77
2014-06-06T06:40:45.449Z,37.67
2014-06-06T06:41:50.138Z,40.03
2014-06-06T06:42:54.828Z,41.03
2014-06-06T06:43:59.517Z,41.38
2014-06-06T06:45:04.504Z,41.58
2014-06-06T06:46:09.193Z,42.44
2014-06-06T06:47:13.883Z,43.61
2014-06-06T06:48:18.571Z,43.76
2014-06-06T06:49:23.264Z,45.51
2014-06-06T06:50:27.952Z,45.3
2014-06-06T06:51:32.642Z,44.36
2014-06-06T06:52:37.629Z,46.17
2014-06-06T06:53:42.318Z,47.23
2014-06-06T06:54:46.992Z,47.19
2014-06-06T06:55:51.681Z,46.82
2014-06-06T06:56:56.371Z,47.27
2014-06-06T06:58:01.060Z,47
2014-06-06T06:59:06.046Z,46.44
2014-06-06T07:00:10.736Z,45.27
2014-06-06T07:01:15.425Z,45.23
2014-06-06T07:02:20.115Z,45.61
2014-06-06T07:03:24.806Z,46.34
2014-06-06T07:04:29.495Z,47.46
2014-06-06T07:05:34.184Z,47.5
2014-06-06T07:06:38.874Z,49.56
2014-06-06T07:07:43.563Z,49.61
2014-06-06T07:08:48.534Z,48.05
2014-06-06T07:09:53.224Z,48.99
2014-06-06T07:10:57.226Z,48.69
2014-06-06T07:12:01.915Z,47.93
2014-06-06T07:13:06.605Z,47.66
2014-06-06T07:14:11.294Z,48.39
2014-06-06T07:15:15.984Z,48.77
2014-06-06T07:16:20.657Z,48.69
2014-06-06T07:17:25.347Z,49.2
2014-06-06T07:18:30.038Z,49.81
2014-06-06T07:19:34.040Z,48.96
2014-06-06T07:20:38.713Z,48.95
2014-06-06T07:21:43.403Z,48.66
2014-06-06T07:22:48.389Z,47.75
2014-06-06T07:23:53.079Z,46.38
2014-06-06T07:24:57.768Z,45.67
2014-06-06T07:26:02.458Z,46.22
2014-06-06T07:27:07.147Z,46.19
2014-06-06T07:28:12.118Z,46.42
2014-06-06T07:29:16.807Z,47.07
2014-06-06T07:30:21.497Z,46.96
2014-06-06T07:31:26.187Z,46.8
2014-06-06T07:32:30.862Z,45.8
2014-06-06T07:33:35.551Z,45.18
2014-06-06T07:34:40.240Z,45.23
2014-06-06T07:35:44.930Z,44.83
2014-06-06T07:36:49.619Z,44.23
2014-06-06T07:37:54.606Z,45.04
2014-06-06T07:38:59.295Z,44.95
2014-06-06T07:40:03.984Z,44.38
2014-06-06T07:41:08.970Z,44.32
2014-06-06T07:42:13.957Z,44.91
2014-06-06T07:43:18.943Z,46.08
2014-06-06T07:44:23.633Z,45.86
2014-06-06T07:45:28.322Z,45.84
2014-06-06T07:46:33.013Z,44.74
2014-06-06T07:47:37.703Z,44.15
2014-06-06T07:48:42.689Z,43.93
2014-06-06T07:49:47.676Z,44.97
2014-06-06T07:50:52.365Z,44.68
2014-06-06T07:51:57.352Z,44.44
2014-06-06T07:53:02.025Z,44.47
2014-06-06T07:54:06.715Z,43.71
2014-06-06T07:55:11.404Z,45.07
2014-06-06T07:56:16.094Z,45.66
2014-06-06T07:57:21.079Z,44.87
2014-06-06T07:58:25.769Z,44.44
2014-06-06T07:59:30.444Z,45.92
2014-06-06T08:00:35.134Z,45.12
2014-06-06T08:01:39.824Z,45.84
2014-06-06T08:02:44.513Z,44.22
2014-06-06T08:03:49.202Z,44.95
2014-06-06T08:04:53.892Z,44.62
2014-06-06T08:05:58.879Z,44.73
2014-06-06T08:07:03.568Z,44.4
2014-06-06T08:08:07.570Z,44.01
2014-06-06T08:09:12.556Z,43.66
2014-06-06T08:10:17.245Z,43.35
2014-06-06T08:11:22.231Z,43.81
2014-06-06T08:12:26.922Z,43.5
2014-06-06T08:13:31.908Z,43.47
2014-06-06T08:14:36.599Z,43.05
2014-06-06T08:15:41.288Z,42.96
2014-06-06T08:16:45.962Z,43.94
2014-06-06T08:17:50.667Z,43.85
2014-06-06T08:18:54.654Z,44.32
2014-06-06T08:19:59.343Z,43.24
2014-06-06T08:21:04.033Z,43.91
2014-06-06T08:22:08.722Z,44.52
2014-06-06T08:23:13.412Z,44.24
2014-06-06T08:24:18.101Z,44.19
2014-06-06T08:25:22.790Z,43.84
2014-06-06T08:26:27.479Z,43.59
2014-06-06T08:27:32.169Z,43.36
2014-06-06T08:28:36.860Z,43.71
2014-06-06T08:29:41.550Z,44.37
2014-06-06T08:30:46.239Z,43.65
2014-06-06T08:31:50.928Z,44.28
2014-06-06T08:32:55.617Z,43.71
2014-06-06T08:34:00.603Z,44
2014-06-06T08:35:05.277Z,43.55
2014-06-06T08:36:09.967Z,42.88
2014-06-06T08:37:14.657Z,41.46
2014-06-06T08:38:19.346Z,41.93
2014-06-06T08:39:24.036Z,41.91
2014-06-06T08:40:28.725Z,41.29
2014-06-06T08:41:33.414Z,41.9
2014-06-06T08:42:38.106Z,42.58
2014-06-06T08:43:42.795Z,42.91
2014-06-06T08:44:47.782Z,43.1
2014-06-06T08:45:52.470Z,42.55
2014-06-06T08:46:57.160Z,43.28
2014-06-06T08:48:01.850Z,43.21
2014-06-06T08:49:06.524Z,42.16
2014-06-06T08:50:11.510Z,41.95
2014-06-06T08:51:16.200Z,42.17
2014-06-06T08:52:20.889Z,43.61
2014-06-06T08:53:25.875Z,42.12
2014-06-06T08:54:30.564Z,42.43
2014-06-06T08:55:35.254Z,41.63
2014-06-06T08:56:39.945Z,43.3
2014-06-06T08:57:44.635Z,42.43
2014-06-06T08:58:49.332Z,42.62
2014-06-06T08:59:54.061Z,42.88
2014-06-06T09:00:58.788Z,41.89
2014-06-06T09:02:03.516Z,42.58
2014-06-06T09:03:08.243Z,43.08
2014-06-06T09:04:12.964Z,42.56
2014-06-06T09:05:17.667Z,42.55
2014-06-06T09:06:22.371Z,42.36
2014-06-06T09:07:27.074Z,42.48
2014-06-06T09:08:31.778Z,41.4
2014-06-06T09:09:36.479Z,42.99
2014-06-06T09:10:41.174Z,42.41
2014-06-06T09:11:45.874Z,42.79
2014-06-06T09:12:50.569Z,42.87
2014-06-06T09:13:55.262Z,43.39
2014-06-06T09:14:59.954Z,42.89
2014-06-06T09:16:04.645Z,42.88
2014-06-06T09:17:09.336Z,41.98
2014-06-06T09:18:14.026Z,40.65
2014-06-06T09:19:19.014Z,40.41
2014-06-06T09:20:24.001Z,40.68
2014-06-06T09:21:28.691Z,40.98
2014-06-06T09:22:33.678Z,42.05
2014-06-06T09:23:38.368Z,42.24
2014-06-06T09:24:43.061Z,42.23
2014-06-06T09:25:47.750Z,41.56
2014-06-06T09:26:52.439Z,41.46
2014-06-06T09:27:57.128Z,41.4
2014-06-06T09:29:01.819Z,42.15
2014-06-06T09:30:06.507Z,42.27
2014-06-06T09:31:11.197Z,41.69
2014-06-06T09:32:15.886Z,40.63
2014-06-06T09:33:20.575Z,41.4
2014-06-06T09:34:25.265Z,41.59
2014-06-06T09:35:29.955Z,41.44
2014-06-06T09:36:34.644Z,42.02
2014-06-06T09:37:39.630Z,41.79
2014-06-06T09:38:44.321Z,41.96
2014-06-06T09:39:49.011Z,41.3
2014-06-06T09:40:53.700Z,41.48
2014-06-06T09:41:58.687Z,40.04
2014-06-06T09:43:03.376Z,40.8
2014-06-06T09:44:08.363Z,41.37
2014-06-06T09:45:13.348Z,40.97
2014-06-06T09:46:18.038Z,41.58
2014-06-06T09:47:22.728Z,40.65
2014-06-06T09:48:27.714Z,40.76
2014-06-06T09:49:32.404Z,40.57
2014-06-06T09:50:37.092Z,40.9
2014-06-06T09:51:41.783Z,39.78
2014-06-06T09:52:46.474Z,39.51
2014-06-06T09:53:51.163Z,39.69
2014-06-06T09:54:55.852Z,40.49
2014-06-06T09:56:00.542Z,39.08
2014-06-06T09:57:05.231Z,39.86
2014-06-06T09:58:09.921Z,39.42
2014-06-06T09:59:14.626Z,40.2
2014-06-06T10:00:19.315Z,39.95
2014-06-06T10:01:24.005Z,40.24
2014-06-06T10:02:28.694Z,39.33
2014-06-06T10:03:33.383Z,38.29
2014-06-06T10:04:38.073Z,38.11
2014-06-06T10:05:42.762Z,37.99
2014-06-06T10:06:47.453Z,37.07
2014-06-06T10:07:52.143Z,38.23
2014-06-06T10:08:56.832Z,38.29
2014-06-06T10:10:01.522Z,38.72
2014-06-06T10:11:06.211Z,36.61
2014-06-06T10:12:11.198Z,37.53
2014-06-06T10:13:15.886Z,36.37
2014-06-06T10:14:20.577Z,35.61
2014-06-06T10:15:25.563Z,36.82
2014-06-06T10:16:30.253Z,37.14
2014-06-06T10:17:34.942Z,37.09
2014-06-06T10:18:39.631Z,36.25
2014-06-06T10:19:44.321Z,35.31
2014-06-06T10:20:49.013Z,35.99
2014-06-06T10:21:53.998Z,35.32
2014-06-06T10:22:58.688Z,34.6
2014-06-06T10:24:03.377Z,34.18
2014-06-06T10:25:08.067Z,34.62
2014-06-06T10:26:12.756Z,34.65
2014-06-06T10:27:17.445Z,34.68
2014-06-06T10:28:21.447Z,34.27
2014-06-06T10:29:26.137Z,33.73
2014-06-06T10:30:30.826Z,33.84
2014-06-06T10:31:35.515Z,32.81
2014-06-06T10:32:40.501Z,31.53
2014-06-06T10:33:45.207Z,31.17
2014-06-06T10:34:49.898Z,32.21
2014-06-06T10:35:54.884Z,31.82
2014-06-06T10:36:59.871Z,31.86
2014-06-06T10:38:04.560Z,30.88
2014-06-06T10:39:09.250Z,31.05
2014-06-06T10:40:13.955Z,31.21
2014-06-06T10:41:18.644Z,30.1
2014-06-06T10:42:23.631Z,30.12
2014-06-06T10:43:28.616Z,31.06
2014-06-06T10:44:33.321Z,31.7
2014-06-06T10:45:38.011Z,31.55
2014-06-06T10:46:42.700Z,30.54
2014-06-06T10:47:47.390Z,29.69
2014-06-06T10:48:52.081Z,30.46
2014-06-06T10:49:56.771Z,29.9
2014-06-06T10:51:01.460Z,30.84
2014-06-06T10:52:06.164Z,31.67
2014-06-06T10:53:10.871Z,31.76
2014-06-06T10:54:15.560Z,31.65
2014-06-06T10:55:20.249Z,31.51
2014-06-06T10:56:24.939Z,31.94
2014-06-06T10:57:29.629Z,30.21
2014-06-06T10:58:34.317Z,31.58
2014-06-06T10:59:39.007Z,31.52
2014-06-06T11:00:43.697Z,30.42
2014-06-06T11:01:48.386Z,32.43
2014-06-06T11:02:53.075Z,30.35
2014-06-06T11:03:57.767Z,30.28
2014-06-06T11:05:02.769Z,29.55
2014-06-06T11:06:07.458Z,30.23
2014-06-06T11:07:12.443Z,31.56
2014-06-06T11:08:17.135Z,30.18
2014-06-06T11:09:22.136Z,32.2
2014-06-06T11:10:26.825Z,30.4
2014-06-06T11:11:31.812Z,30.48
2014-06-06T11:12:36.500Z,31.52
2014-06-06T11:13:41.488Z,31.93
2014-06-06T11:14:46.176Z,31.65
2014-06-06T11:15:50.881Z,29.61
2014-06-06T11:16:55.571Z,31.09
2014-06-06T11:18:00.557Z,29.28
2014-06-06T11:19:05.544Z,30.32
2014-06-06T11:20:10.233Z,31.17
2014-06-06T11:21:14.940Z,30.49
2014-06-06T11:22:19.630Z,30.06
2014-06-06T11:23:24.319Z,30.57
2014-06-06T11:24:29.009Z,30.29
2014-06-06T11:25:33.995Z,30.21
2014-06-06T11:26:38.685Z,30.58
2014-06-06T11:27:43.390Z,29.35
2014-06-06T11:28:48.079Z,30.56
2014-06-06T11:29:52.769Z,28.95
2014-06-06T11:30:57.457Z,30.07
2014-06-06T11:32:02.147Z,30.96
2014-06-06T11:33:06.837Z,29.55
2014-06-06T11:34:11.526Z,30.32
2014-06-06T11:35:16.215Z,31.28
2014-06-06T11:36:20.920Z,30.12
2014-06-06T11:37:25.909Z,30.31
2014-06-06T11:38:30.598Z,30.36
2014-06-06T11:39:35.288Z,28.98
2014-06-06T11:40:39.993Z,30.34
2014-06-06T11:41:44.682Z,29.41
2014-06-06T11:42:49.372Z,31.22
2014-06-06T11:43:54.061Z,30.88
2014-06-06T11:44:58.751Z,29.87
2014-06-06T11:46:03.440Z,29.2
2014-06-06T11:47:08.129Z,29.69
2014-06-06T11:48:12.818Z,29.49
2014-06-06T11:49:17.509Z,30.08
2014-06-06T11:50:22.495Z,28.43
2014-06-06T11:51:27.185Z,28.29
2014-06-06T11:52:31.873Z,28.16
2014-06-06T11:53:36.565Z,27.87
2014-06-06T11:54:41.551Z,28.52
2014-06-06T11:55:46.554Z,29.53
2014-06-06T11:56:51.243Z,28.96
2014-06-06T11:57:55.932Z,29.03
2014-06-06T11:59:00.623Z,26.85
2014-06-06T12:00:05.311Z,26.76
2014-06-06T12:01:10.001Z,29.32
2014-06-06T12:02:14.690Z,26.19
2014-06-06T12:03:19.380Z,27.34
2014-06-06T12:04:24.069Z,27.21
2014-06-06T12:05:28.759Z,28.82
2014-06-06T12:06:33.448Z,27.93
2014-06-06T12:07:38.138Z,26.27
2014-06-06T12:08:43.140Z,26.49
2014-06-06T12:09:47.829Z,26.06
2014-06-06T12:10:52.519Z,26.87
2014-06-06T12:11:57.208Z,28.12
2014-06-06T12:13:01.915Z,27.68
2014-06-06T12:14:06.605Z,27.29
2014-06-06T12:15:11.293Z,27.88
2014-06-06T12:16:15.983Z,26.79
2014-06-06T12:17:20.703Z,26.95
2014-06-06T12:18:25.393Z,27.02
2014-06-06T12:19:30.083Z,27.91
2014-06-06T12:20:34.772Z,27.01
2014-06-06T12:21:39.477Z,26.57
2014-06-06T12:22:44.167Z,26.68
2014-06-06T12:23:49.450Z,27.89
2014-06-06T12:24:54.139Z,27.11
2014-06-06T12:25:58.844Z,26.66
2014-06-06T12:27:03.534Z,27.35
2014-06-06T12:28:08.521Z,27.11
2014-06-06T12:29:13.225Z,26.38
2014-06-06T12:30:17.228Z,26.6
2014-06-06T12:31:22.511Z,26.88
2014-06-06T12:32:27.216Z,25.78
2014-06-06T12:33:31.907Z,27.24
2014-06-06T12:34:36.597Z,27.55
2014-06-06T12:35:41.286Z,26.13
2014-06-06T12:36:45.976Z,25.42
2014-06-06T12:37:50.665Z,26.23
2014-06-06T12:38:55.354Z,27.11
2014-06-06T12:40:00.654Z,26.27
2014-06-06T12:41:05.343Z,26.72
2014-06-06T12:42:10.345Z,26.95
2014-06-06T12:43:15.035Z,27.32
2014-06-06T12:44:19.723Z,26.96
2014-06-06T12:45:24.414Z,26.52
2014-06-06T12:46:29.102Z,27.1
2014-06-06T12:47:33.402Z,26.15
2014-06-06T12:48:38.092Z,27.58
2014-06-06T12:49:42.796Z,26.74
2014-06-06T12:50:47.782Z,25.87
2014-06-06T12:51:52.472Z,26.56
2014-06-06T12:52:57.474Z,27.84
2014-06-06T12:54:02.163Z,26.21
2014-06-06T12:55:06.855Z,26.1
2014-06-06T12:56:12.153Z,26.71
2014-06-06T12:57:16.843Z,26.6
2014-06-06T12:58:21.532Z,26.38
2014-06-06T12:59:26.222Z,26.98
2014-06-06T13:00:30.911Z,26.67
2014-06-06T13:01:35.617Z,26.88
2014-06-06T13:02:40.306Z,27.26
2014-06-06T13:03:44.996Z,27.78
2014-06-06T13:04:49.685Z,26.4
2014-06-06T13:05:54.374Z,28.88
2014-06-06T13:06:59.063Z,26.67
2014-06-06T13:08:03.753Z,25.75
2014-06-06T13:09:08.757Z,26.72
2014-06-06T13:10:13.446Z,26.35
2014-06-06T13:11:18.136Z,27.29
2014-06-06T13:12:22.153Z,25.49
2014-06-06T13:13:26.843Z,25.82
2014-06-06T13:14:31.532Z,25.83
2014-06-06T13:15:36.831Z,25.37
2014-06-06T13:16:41.817Z,27.35
2014-06-06T13:17:46.507Z,24.92
2014-06-06T13:18:51.195Z,26.65
2014-06-06T13:19:55.886Z,26.32
2014-06-06T13:21:00.871Z,26.4
2014-06-06T13:22:05.858Z,27.67
2014-06-06T13:23:10.549Z,27.2
2014-06-06T13:24:15.536Z,26.55
2014-06-06T13:25:20.241Z,27.35
2014-06-06T13:26:24.929Z,26.12
2014-06-06T13:27:29.916Z,27.93
2014-06-06T13:28:34.606Z,26.03
2014-06-06T13:29:39.295Z,26.9
2014-06-06T13:30:43.985Z,27.49
2014-06-06T13:31:48.970Z,26.84
2014-06-06T13:32:53.972Z,26.3
2014-06-06T13:33:58.662Z,25.96
2014-06-06T13:35:03.351Z,27
2014-06-06T13:36:08.042Z,27.1
2014-06-06T13:37:12.732Z,26.63
2014-06-06T13:38:17.422Z,26.34
2014-06-06T13:39:22.111Z,26.07
2014-06-06T13:40:27.113Z,28.07
2014-06-06T13:41:31.803Z,27.56
2014-06-06T13:42:36.788Z,26.84
2014-06-06T13:43:41.493Z,26.7
2014-06-06T13:44:46.184Z,26.84
2014-06-06T13:45:51.169Z,27.7
2014-06-06T13:46:55.860Z,27.6
2014-06-06T13:48:00.846Z,27.86
2014-06-06T13:49:05.550Z,27.78
2014-06-06T13:50:10.240Z,27.28
2014-06-06T13:51:14.931Z,27.86
2014-06-06T13:52:19.621Z,27.06
2014-06-06T13:53:24.310Z,26.61
2014-06-06T13:54:29.015Z,28.21
2014-06-06T13:55:33.705Z,28.35
2014-06-06T13:56:38.393Z,27.19